Time;durP1;ratioP1;P1;durP2;ratioP2;P2;SDS_P1;SDS_P2;PMS_P1;PMS_P2;Temp;Humidity;BMP_temperature;BMP_pressure;BME280_temperature;BME280_humidity;BME280_pressure;Samples;Min_cycle;Max_cycle;Signal;HPM_P1;HPM_P2
2022/11/04 00:01:12;;;;;;;7.82;5.35;;;8.20;99.90;;;;;;7364515;19;20321;-79
2022/11/04 00:03:37;;;;;;;6.77;5.07;;;8.20;99.90;;;;;;7368101;19;20353;-79
2022/11/04 00:06:03;;;;;;;7.25;5.13;;;8.20;99.90;;;;;;7364984;19;21051;-77
2022/11/04 00:08:29;;;;;;;6.73;5.23;;;8.10;99.90;;;;;;7365498;19;20308;-79
2022/11/04 00:13:41;;;;;;;6.53;4.65;;;8.10;99.90;;;;;;7262932;19;2005134;-79
2022/11/04 00:18:52;;;;;;;6.20;5.10;;;8.10;99.90;;;;;;7267207;19;2004612;-78
2022/11/04 00:29:30;;;;;;;6.17;5.17;;;8.00;99.90;;;;;;7373801;19;20954;-77
2022/11/04 00:34:40;;;;;;;6.38;5.55;;;8.00;99.90;;;;;;7268254;19;2005691;-78
2022/11/04 00:37:06;;;;;;;6.20;5.30;;;8.00;99.90;;;;;;7371070;19;20321;-77
2022/11/04 00:39:31;;;;;;;6.53;5.05;;;8.00;99.90;;;;;;7370628;19;20420;-79
2022/11/04 00:41:57;;;;;;;6.57;5.27;;;7.90;99.90;;;;;;7372381;19;20344;-77
2022/11/04 00:44:22;;;;;;;7.22;5.50;;;7.80;99.90;;;;;;7369784;19;20325;-78
2022/11/04 00:46:48;;;;;;;7.00;5.60;;;7.80;99.90;;;;;;7370795;19;20344;-78
2022/11/04 00:49:14;;;;;;;6.60;5.50;;;7.70;99.90;;;;;;7370138;19;20351;-78
2022/11/04 00:51:39;;;;;;;6.18;5.50;;;7.60;99.90;;;;;;7370195;19;20348;-77
2022/11/04 00:54:05;;;;;;;7.53;5.63;;;7.60;99.90;;;;;;7371581;19;20308;-77
2022/11/04 00:56:30;;;;;;;6.20;5.60;;;7.50;99.90;;;;;;7372236;19;20325;-80
2022/11/04 00:58:58;;;;;;;7.73;5.70;;;7.50;99.90;;;;;;7369962;19;20404;-77
2022/11/04 01:01:23;;;;;;;7.05;4.75;;;7.50;99.90;;;;;;7371203;19;20321;-77
2022/11/04 01:03:51;;;;;;;7.05;5.10;;;7.50;99.90;;;;;;7369761;19;21086;-78
2022/11/04 01:06:17;;;;;;;6.13;5.50;;;7.60;99.90;;;;;;7369840;19;20819;-79
2022/11/04 01:08:42;;;;;;;5.90;5.30;;;7.60;99.90;;;;;;7371008;19;20459;-78
2022/11/04 01:11:08;;;;;;;6.07;5.10;;;7.60;99.90;;;;;;7372346;19;20440;-77
2022/11/04 01:13:34;;;;;;;7.60;5.72;;;7.60;99.90;;;;;;7370419;19;20353;-78
2022/11/04 01:16:00;;;;;;;7.43;5.50;;;7.60;99.90;;;;;;7370155;19;20340;-79
2022/11/04 01:18:26;;;;;;;6.37;5.37;;;7.60;99.90;;;;;;7368875;19;20367;-78
2022/11/04 01:20:51;;;;;;;6.70;5.35;;;7.60;99.90;;;;;;7369580;19;20352;-78
2022/11/04 01:23:17;;;;;;;7.63;5.30;;;7.60;99.90;;;;;;7363933;19;20337;-77
2022/11/04 01:25:42;;;;;;;8.25;5.93;;;7.70;99.90;;;;;;7367055;19;20420;-77
2022/11/04 01:28:08;;;;;;;8.33;5.60;;;7.60;99.90;;;;;;7369131;19;20349;-78
2022/11/04 01:30:36;;;;;;;8.25;5.22;;;7.50;99.90;;;;;;7368909;19;20336;-77
2022/11/04 01:33:02;;;;;;;7.10;5.80;;;7.50;99.90;;;;;;7369723;19;20328;-78
2022/11/04 01:35:27;;;;;;;6.70;5.63;;;7.50;99.90;;;;;;7369435;19;20321;-77
2022/11/04 01:37:53;;;;;;;6.40;5.23;;;7.50;99.90;;;;;;7369336;19;20353;-79
2022/11/04 01:40:18;;;;;;;8.00;5.40;;;7.50;99.90;;;;;;7369923;19;21297;-78
2022/11/04 01:42:44;;;;;;;8.30;5.93;;;7.50;99.90;;;;;;7368916;19;20340;-79
2022/11/04 01:45:14;;;;;;;8.43;5.80;;;7.40;99.90;;;;;;7371310;19;20449;-76
2022/11/04 01:47:43;;;;;;;8.93;6.25;;;7.40;99.90;;;;;;7367589;19;20363;-76
2022/11/04 01:50:13;;;;;;;6.85;5.97;;;7.40;99.90;;;;;;7366567;19;20316;-76
2022/11/04 01:52:56;;;;;;;6.05;5.13;;;7.40;99.90;;;;;;7367849;19;20336;-75
2022/11/04 01:55:30;;;;;;;7.97;5.57;;;7.40;99.90;;;;;;7265341;19;2019808;-76
2022/11/04 01:57:58;;;;;;;8.73;5.85;;;7.50;99.90;;;;;;7367468;19;20340;-76
2022/11/04 02:00:23;;;;;;;7.95;6.13;;;7.50;99.90;;;;;;7367399;19;20316;-76
2022/11/04 02:03:00;;;;;;;6.90;5.50;;;7.40;99.90;;;;;;7367636;19;20361;-76
2022/11/04 02:05:26;;;;;;;6.85;5.40;;;7.40;99.90;;;;;;7368103;19;20321;-76
2022/11/04 02:07:54;;;;;;;8.13;5.63;;;7.30;99.90;;;;;;7367395;19;20366;-76
2022/11/04 02:10:21;;;;;;;7.77;6.17;;;7.30;99.90;;;;;;7366912;19;20311;-76
2022/11/04 02:12:49;;;;;;;6.35;5.38;;;7.30;99.90;;;;;;7367723;19;20340;-76
2022/11/04 02:15:22;;;;;;;8.85;6.40;;;7.30;99.90;;;;;;7368012;19;20411;-76
2022/11/04 02:18:04;;;;;;;8.87;6.20;;;7.30;99.90;;;;;;7367358;19;20348;-76
2022/11/04 02:21:08;;;;;;;6.93;5.63;;;7.20;99.90;;;;;;7369018;19;20328;-78
2022/11/04 02:23:57;;;;;;;6.93;5.25;;;7.20;99.90;;;;;;7265425;19;2019787;-78
2022/11/04 02:26:49;;;;;;;8.35;6.20;;;7.20;99.90;;;;;;7264889;19;2020157;-78
2022/11/04 02:29:23;;;;;;;6.93;6.07;;;7.20;99.90;;;;;;7269113;19;2020009;-77
2022/11/04 02:31:55;;;;;;;7.20;5.50;;;7.20;99.90;;;;;;7373220;19;21002;-78
2022/11/04 02:34:40;;;;;;;7.55;5.97;;;7.20;99.90;;;;;;7367308;19;20704;-78
2022/11/04 02:37:31;;;;;;;9.98;6.47;;;7.10;99.90;;;;;;7367009;19;20360;-78
2022/11/04 02:40:40;;;;;;;6.68;5.75;;;7.10;99.90;;;;;;7271482;19;2004328;-78
2022/11/04 02:43:15;;;;;;;9.95;6.03;;;7.20;99.90;;;;;;7268835;19;2010579;-77
2022/11/04 02:45:51;;;;;;;7.38;6.35;;;7.10;99.90;;;;;;7265740;19;2006111;-77
2022/11/04 02:48:31;;;;;;;7.53;5.30;;;7.20;99.90;;;;;;7366971;19;21107;-77
2022/11/04 02:51:04;;;;;;;8.15;6.20;;;7.10;99.90;;;;;;7367833;19;20378;-78
2022/11/04 02:53:36;;;;;;;8.10;6.30;;;7.10;99.90;;;;;;7367133;19;20320;-78
2022/11/04 02:56:02;;;;;;;9.00;6.93;;;7.10;99.90;;;;;;7366358;19;20305;-77
2022/11/04 02:58:39;;;;;;;8.50;6.13;;;7.00;99.90;;;;;;7366341;19;20364;-78
2022/11/04 03:01:05;;;;;;;7.07;5.90;;;7.00;99.90;;;;;;7366332;19;20325;-78
2022/11/04 03:03:37;;;;;;;7.95;6.13;;;7.10;99.90;;;;;;7366840;19;20345;-77
2022/11/04 03:06:02;;;;;;;7.45;6.00;;;7.10;99.90;;;;;;7366490;19;20352;-78
2022/11/04 03:08:33;;;;;;;9.35;6.00;;;7.10;99.90;;;;;;7366112;19;21214;-77
2022/11/04 03:11:05;;;;;;;8.07;6.47;;;7.20;99.90;;;;;;7366191;19;20432;-75
2022/11/04 03:13:40;;;;;;;7.80;6.13;;;7.20;99.90;;;;;;7366556;19;20320;-76
2022/11/04 03:16:08;;;;;;;8.02;6.20;;;7.20;99.90;;;;;;7366905;19;20339;-76
2022/11/04 03:19:07;;;;;;;7.00;5.80;;;7.10;99.90;;;;;;7365751;19;20461;-76
2022/11/04 03:21:33;;;;;;;8.50;6.63;;;7.10;99.90;;;;;;7263895;19;2004280;-76
2022/11/04 03:23:59;;;;;;;8.10;6.70;;;7.10;99.90;;;;;;7366518;19;20355;-76
2022/11/04 03:26:28;;;;;;;7.75;6.20;;;7.10;99.90;;;;;;7364454;19;21185;-76
2022/11/04 03:28:57;;;;;;;6.88;5.88;;;7.00;99.90;;;;;;7365754;19;20345;-76
2022/11/04 03:31:28;;;;;;;9.00;6.68;;;7.00;99.90;;;;;;7365087;19;20781;-76
2022/11/04 03:33:54;;;;;;;8.88;6.90;;;7.00;99.90;;;;;;7363862;19;20367;-76
2022/11/04 03:36:19;;;;;;;6.73;6.00;;;7.00;99.90;;;;;;7365240;19;20328;-76
2022/11/04 03:38:45;;;;;;;9.05;6.93;;;7.00;99.90;;;;;;7365404;19;21344;-77
2022/11/04 03:41:17;;;;;;;7.27;5.83;;;7.00;99.90;;;;;;7365045;19;20313;-77
2022/11/04 03:43:42;;;;;;;7.40;6.05;;;7.00;99.90;;;;;;7365029;19;20381;-79
2022/11/04 03:46:08;;;;;;;8.40;6.37;;;7.00;99.90;;;;;;7365415;19;21001;-79
2022/11/04 03:48:34;;;;;;;8.80;5.80;;;7.00;99.90;;;;;;7364186;19;20343;-78
2022/11/04 03:51:00;;;;;;;9.33;6.37;;;7.00;99.90;;;;;;7365788;19;20706;-77
2022/11/04 03:53:25;;;;;;;10.25;7.20;;;7.00;99.90;;;;;;7364836;19;20329;-77
2022/11/04 03:56:01;;;;;;;11.03;7.03;;;7.00;99.90;;;;;;7365099;19;20887;-78
2022/11/04 03:58:57;;;;;;;6.70;6.00;;;6.90;99.90;;;;;;7361268;19;20377;-79
2022/11/04 04:01:44;;;;;;;7.32;5.88;;;6.90;99.90;;;;;;7270959;19;2004656;-77
2022/11/04 04:04:44;;;;;;;8.02;6.90;;;6.90;99.90;;;;;;7368063;19;20308;-78
2022/11/04 04:07:15;;;;;;;7.55;6.30;;;6.90;99.90;;;;;;7167431;19;2004397;-78
2022/11/04 04:09:46;;;;;;;8.00;6.25;;;7.00;99.90;;;;;;7266702;19;2019367;-79
2022/11/04 04:12:32;;;;;;;8.57;7.35;;;6.90;99.90;;;;;;7371164;19;20847;-77
2022/11/04 04:15:02;;;;;;;7.90;6.45;;;6.90;99.90;;;;;;7371035;19;20373;-77
2022/11/04 04:17:33;;;;;;;7.87;6.90;;;6.90;99.90;;;;;;7371560;19;20427;-79
2022/11/04 04:20:03;;;;;;;8.48;7.22;;;6.80;99.90;;;;;;7369709;19;20337;-77
2022/11/04 04:22:34;;;;;;;7.77;6.97;;;6.80;99.90;;;;;;7370425;19;20324;-78
2022/11/04 04:27:46;;;;;;;9.65;6.40;;;6.70;99.90;;;;;;7267215;19;2004352;-77
2022/11/04 04:30:13;;;;;;;7.90;5.65;;;6.70;99.90;;;;;;7370441;19;20340;-77
2022/11/04 04:32:54;;;;;;;6.28;5.55;;;6.80;99.90;;;;;;7373115;19;20340;-77
2022/11/04 04:35:43;;;;;;;8.68;6.30;;;6.80;99.90;;;;;;7269076;19;2019900;-79
2022/11/04 04:47:11;;;;;;;6.10;5.50;;;6.80;99.90;;;;;;7167027;19;2004419;-76
2022/11/04 04:49:47;;;;;;;8.75;5.95;;;6.80;99.90;;;;;;7369889;19;20352;-76
2022/11/04 04:52:13;;;;;;;6.75;6.03;;;6.80;99.90;;;;;;7267476;19;2012729;-76
2022/11/04 04:54:38;;;;;;;7.70;6.10;;;6.80;99.90;;;;;;7377722;19;20347;-78
2022/11/04 04:57:04;;;;;;;8.55;6.50;;;6.70;99.90;;;;;;7380321;19;20315;-77
2022/11/04 04:59:29;;;;;;;7.20;6.47;;;6.70;99.90;;;;;;7372572;19;20436;-78
2022/11/04 05:01:55;;;;;;;7.40;6.70;;;6.80;99.90;;;;;;7369939;19;20851;-78
2022/11/04 05:04:21;;;;;;;12.48;7.57;;;6.80;99.90;;;;;;7370549;19;20309;-79
2022/11/04 05:06:46;;;;;;;7.40;6.30;;;6.80;99.90;;;;;;7371245;19;20332;-78
2022/11/04 05:09:12;;;;;;;8.68;6.22;;;6.90;99.90;;;;;;7370016;19;20946;-80
2022/11/04 05:11:37;;;;;;;6.40;5.77;;;6.80;99.90;;;;;;7372681;19;20361;-78
2022/11/04 05:14:03;;;;;;;7.73;5.93;;;6.80;99.90;;;;;;7370118;19;20319;-77
2022/11/04 05:16:28;;;;;;;7.70;5.97;;;6.80;99.90;;;;;;7369098;19;20602;-77
2022/11/04 05:18:54;;;;;;;7.13;5.80;;;6.80;99.90;;;;;;7370915;19;20344;-78
2022/11/04 05:21:20;;;;;;;7.20;6.25;;;6.70;99.90;;;;;;7368313;19;20309;-79
2022/11/04 05:23:45;;;;;;;7.37;5.90;;;6.80;99.90;;;;;;7369548;19;20411;-79
2022/11/04 05:26:11;;;;;;;8.48;6.72;;;6.80;99.90;;;;;;7368339;19;20355;-78
2022/11/04 05:28:37;;;;;;;8.10;6.80;;;6.80;99.90;;;;;;7370092;19;20911;-78
2022/11/04 05:31:04;;;;;;;8.65;6.13;;;6.80;99.90;;;;;;7370261;19;20984;-79
2022/11/04 05:33:29;;;;;;;7.38;6.10;;;6.80;99.90;;;;;;7369625;19;20918;-79
2022/11/04 05:36:10;;;;;;;7.60;6.17;;;6.80;99.90;;;;;;7372063;19;20355;-78
2022/11/04 05:38:36;;;;;;;6.95;5.93;;;6.80;99.90;;;;;;7367699;19;20415;-78
2022/11/04 05:41:02;;;;;;;7.17;6.00;;;6.90;99.90;;;;;;7368500;19;20847;-78
2022/11/04 05:43:28;;;;;;;8.20;6.37;;;6.80;99.90;;;;;;7369713;19;20308;-78
2022/11/04 05:45:53;;;;;;;9.10;7.05;;;6.80;99.90;;;;;;7368760;19;20356;-78
2022/11/04 05:48:19;;;;;;;8.95;6.38;;;6.90;99.90;;;;;;7368569;19;20360;-78
2022/11/04 05:50:45;;;;;;;7.70;5.90;;;6.90;99.90;;;;;;7369653;19;20352;-78
2022/11/04 05:53:10;;;;;;;7.28;5.55;;;6.80;99.90;;;;;;7369488;19;20974;-78
2022/11/04 05:55:36;;;;;;;8.13;7.00;;;6.80;99.90;;;;;;7367782;19;21083;-77
2022/11/04 05:58:01;;;;;;;8.10;6.90;;;6.80;99.90;;;;;;7366510;19;20321;-79
2022/11/04 06:00:27;;;;;;;8.45;6.97;;;6.80;99.90;;;;;;7367482;19;20412;-78
2022/11/04 06:02:55;;;;;;;6.70;6.00;;;6.80;99.90;;;;;;7367939;19;20348;-80
2022/11/04 06:05:21;;;;;;;6.93;6.10;;;6.80;99.90;;;;;;7369247;19;20439;-78
2022/11/04 06:07:47;;;;;;;6.40;5.75;;;6.80;99.90;;;;;;7367088;19;20341;-80
2022/11/04 06:10:12;;;;;;;8.17;6.43;;;6.90;99.90;;;;;;7366462;19;20412;-78
2022/11/04 06:12:38;;;;;;;7.55;5.82;;;6.90;99.90;;;;;;7368156;19;20394;-78
2022/11/04 06:15:04;;;;;;;7.40;6.50;;;6.90;99.90;;;;;;7367946;19;20953;-79
2022/11/04 06:17:30;;;;;;;7.97;6.45;;;6.90;99.90;;;;;;7366063;19;20370;-79
2022/11/04 06:19:55;;;;;;;6.68;5.97;;;7.00;99.90;;;;;;7363041;19;20341;-79
2022/11/04 06:22:21;;;;;;;8.00;6.40;;;7.00;99.90;;;;;;7362972;19;20721;-78
2022/11/04 06:24:47;;;;;;;8.02;6.90;;;7.10;99.90;;;;;;7364597;19;20476;-79
2022/11/04 06:27:12;;;;;;;9.83;7.87;;;7.10;99.90;;;;;;7363008;19;20487;-78
2022/11/04 06:29:41;;;;;;;9.10;6.82;;;7.10;99.90;;;;;;7364085;19;20349;-79
2022/11/04 06:32:09;;;;;;;7.05;6.28;;;7.00;99.90;;;;;;7366038;19;20316;-79
2022/11/04 06:34:35;;;;;;;10.35;7.72;;;7.00;99.90;;;;;;7367327;19;20336;-79
2022/11/04 06:37:01;;;;;;;8.30;6.90;;;7.00;99.90;;;;;;7367692;19;20329;-78
2022/11/04 06:39:26;;;;;;;10.70;7.53;;;7.10;99.90;;;;;;7366457;19;20438;-79
2022/11/04 06:41:52;;;;;;;8.07;6.68;;;7.10;99.90;;;;;;7366560;19;20333;-79
2022/11/04 06:44:17;;;;;;;7.90;7.10;;;7.10;99.90;;;;;;7367254;19;20309;-78
2022/11/04 06:46:43;;;;;;;7.63;6.70;;;7.20;99.90;;;;;;7365284;19;20344;-79
2022/11/04 06:49:11;;;;;;;7.63;6.40;;;7.30;99.90;;;;;;7367367;19;20301;-79
2022/11/04 06:51:37;;;;;;;8.10;7.28;;;7.30;99.90;;;;;;7367948;19;20329;-79
2022/11/04 06:54:02;;;;;;;9.68;7.90;;;7.40;99.90;;;;;;7366616;19;20312;-79
2022/11/04 06:56:28;;;;;;;8.20;7.10;;;7.40;99.90;;;;;;7369420;19;20331;-79
2022/11/04 06:58:54;;;;;;;10.00;8.17;;;7.50;99.90;;;;;;7366634;19;20356;-79
2022/11/04 07:01:20;;;;;;;11.68;9.32;;;7.60;99.90;;;;;;7367744;19;20336;-78
2022/11/04 07:03:53;;;;;;;8.95;8.00;;;7.60;99.90;;;;;;7367275;19;20356;-79
2022/11/04 07:06:18;;;;;;;13.30;9.75;;;7.70;99.90;;;;;;7365552;19;20325;-79
2022/11/04 07:08:45;;;;;;;14.60;9.60;;;7.70;99.90;;;;;;7365603;19;20341;-80
2022/11/04 07:11:11;;;;;;;9.57;8.57;;;7.80;99.90;;;;;;7367505;19;20326;-78
2022/11/04 07:13:36;;;;;;;7.60;6.80;;;7.90;99.90;;;;;;7370976;19;20914;-79
2022/11/04 07:16:05;;;;;;;8.27;6.80;;;7.90;99.90;;;;;;7375305;19;20331;-79
2022/11/04 07:18:31;;;;;;;7.60;6.90;;;8.00;99.90;;;;;;7368353;19;20392;-79
2022/11/04 07:20:57;;;;;;;7.90;6.70;;;8.00;99.90;;;;;;7368302;19;21271;-78
2022/11/04 07:23:23;;;;;;;7.05;6.35;;;8.00;99.90;;;;;;7366221;19;20332;-77
2022/11/04 07:25:48;;;;;;;7.87;7.07;;;8.10;99.90;;;;;;7364781;19;20412;-79
2022/11/04 07:28:14;;;;;;;9.73;8.05;;;8.20;99.90;;;;;;7364242;19;20352;-79
2022/11/04 07:30:39;;;;;;;7.60;6.80;;;8.30;99.90;;;;;;7365631;19;20345;-78
2022/11/04 07:33:05;;;;;;;9.70;8.67;;;8.40;99.90;;;;;;7362818;19;20309;-79
2022/11/04 07:35:31;;;;;;;8.02;7.22;;;8.50;99.90;;;;;;7364970;19;20360;-80
2022/11/04 07:37:56;;;;;;;8.13;7.33;;;8.50;99.90;;;;;;7363874;19;20357;-79
2022/11/04 07:40:22;;;;;;;10.32;8.63;;;8.60;99.90;;;;;;7363049;19;20316;-78
2022/11/04 07:42:47;;;;;;;11.33;9.70;;;8.60;99.90;;;;;;7364030;19;20349;-79
2022/11/04 07:45:16;;;;;;;8.85;7.95;;;8.70;99.90;;;;;;7363920;19;20337;-79
2022/11/04 07:47:41;;;;;;;8.30;7.47;;;8.80;99.90;;;;;;7363222;19;20352;-78
2022/11/04 07:50:07;;;;;;;8.37;7.57;;;8.80;99.90;;;;;;7365412;19;20329;-79
2022/11/04 07:52:33;;;;;;;7.82;7.03;;;9.00;99.90;;;;;;7363743;19;21116;-79
2022/11/04 07:54:58;;;;;;;7.80;7.00;;;9.00;99.90;;;;;;7365064;19;20352;-79
2022/11/04 07:57:24;;;;;;;8.97;7.17;;;9.10;99.90;;;;;;7362837;19;20624;-79
2022/11/04 07:59:50;;;;;;;7.83;7.03;;;9.20;99.90;;;;;;7365526;19;20348;-79
2022/11/04 08:02:15;;;;;;;9.45;8.07;;;9.30;99.90;;;;;;7364312;19;20329;-79
2022/11/04 08:04:41;;;;;;;9.17;7.73;;;9.30;99.90;;;;;;7366132;19;20344;-78
2022/11/04 08:07:08;;;;;;;8.07;7.23;;;9.40;99.90;;;;;;7364175;19;20436;-79
2022/11/04 08:09:35;;;;;;;10.30;8.68;;;9.50;99.90;;;;;;7365258;19;20875;-78
2022/11/04 08:12:01;;;;;;;14.32;11.02;;;9.60;99.90;;;;;;7363807;19;20413;-78
2022/11/04 08:14:26;;;;;;;14.18;11.88;;;9.60;99.90;;;;;;7364623;19;20324;-79
2022/11/04 08:16:52;;;;;;;14.03;11.37;;;9.70;99.90;;;;;;7363907;19;20871;-79
2022/11/04 08:19:18;;;;;;;12.95;11.10;;;9.90;99.90;;;;;;7362877;19;20355;-80
2022/11/04 08:21:43;;;;;;;10.00;8.70;;;10.00;99.90;;;;;;7362825;19;20425;-77
2022/11/04 08:24:09;;;;;;;10.77;9.48;;;10.10;99.90;;;;;;7362233;19;20989;-78
2022/11/04 08:26:34;;;;;;;11.27;9.37;;;10.30;99.90;;;;;;7365989;19;20997;-79
2022/11/04 08:29:01;;;;;;;11.27;8.83;;;10.40;99.90;;;;;;7362471;19;20386;-80
2022/11/04 08:31:28;;;;;;;11.07;9.98;;;10.40;99.90;;;;;;7362328;19;20445;-78
2022/11/04 08:33:54;;;;;;;10.80;8.90;;;10.50;99.90;;;;;;7362668;19;20766;-78
2022/11/04 08:36:20;;;;;;;11.20;9.33;;;10.60;99.90;;;;;;7363377;19;20344;-78
2022/11/04 08:38:46;;;;;;;10.18;9.13;;;10.70;99.90;;;;;;7362722;19;20361;-78
2022/11/04 08:41:12;;;;;;;14.20;10.50;;;10.80;99.90;;;;;;7363466;19;20305;-78
2022/11/04 08:43:38;;;;;;;11.63;10.20;;;10.80;99.90;;;;;;7363963;19;20337;-78
2022/11/04 08:46:05;;;;;;;11.93;9.47;;;10.90;99.90;;;;;;7370870;19;20966;-78
2022/11/04 08:48:31;;;;;;;10.27;8.82;;;10.90;99.90;;;;;;7372104;19;21301;-80
2022/11/04 08:51:00;;;;;;;10.43;9.32;;;11.00;99.90;;;;;;7370427;19;20491;-78
2022/11/04 08:53:26;;;;;;;9.77;8.75;;;11.20;99.90;;;;;;7369221;19;20312;-78
2022/11/04 08:55:51;;;;;;;13.80;10.10;;;11.20;99.90;;;;;;7370339;19;20337;-79
2022/11/04 08:58:17;;;;;;;11.98;9.50;;;11.30;99.90;;;;;;7369047;19;20344;-79
2022/11/04 09:00:42;;;;;;;10.47;8.70;;;11.40;99.90;;;;;;7370728;19;20431;-78
2022/11/04 09:03:08;;;;;;;10.20;9.07;;;11.50;99.90;;;;;;7369726;19;20312;-78
2022/11/04 09:05:40;;;;;;;9.48;8.10;;;11.60;99.90;;;;;;7369471;19;20333;-79
2022/11/04 09:08:05;;;;;;;11.80;9.40;;;11.60;99.90;;;;;;7372087;19;21047;-80
2022/11/04 09:10:31;;;;;;;9.63;8.30;;;11.70;99.90;;;;;;7370893;19;20344;-79
2022/11/04 09:12:56;;;;;;;9.83;8.40;;;11.70;99.90;;;;;;7368947;19;20686;-78
2022/11/04 09:15:22;;;;;;;10.60;8.97;;;11.80;99.90;;;;;;7371007;19;20324;-79
2022/11/04 09:17:48;;;;;;;12.13;8.48;;;11.80;99.90;;;;;;7368459;19;20336;-80
2022/11/04 09:20:13;;;;;;;9.17;8.13;;;11.80;99.90;;;;;;7373226;19;20714;-80
2022/11/04 09:22:39;;;;;;;9.00;6.73;;;11.90;99.90;;;;;;7375219;19;20320;-80
2022/11/04 09:25:04;;;;;;;9.02;7.47;;;11.90;99.90;;;;;;7374832;19;21366;-80
2022/11/04 09:27:30;;;;;;;8.00;6.73;;;12.00;99.90;;;;;;7373018;19;20324;-80
2022/11/04 09:29:55;;;;;;;9.15;7.38;;;12.00;99.90;;;;;;7372667;19;20357;-80
2022/11/04 09:32:21;;;;;;;9.48;7.80;;;12.00;99.90;;;;;;7374646;19;21143;-80
2022/11/04 09:34:47;;;;;;;11.07;7.47;;;12.00;99.90;;;;;;7388834;19;20378;-80
2022/11/04 09:37:12;;;;;;;10.25;7.90;;;12.00;99.90;;;;;;7378837;19;20309;-80
2022/11/04 09:39:38;;;;;;;8.50;6.50;;;12.10;99.90;;;;;;7374824;19;20390;-80
2022/11/04 09:42:16;;;;;;;6.90;6.20;;;12.10;99.90;;;;;;7368092;19;20316;-80
2022/11/04 09:45:00;;;;;;;8.57;7.07;;;12.20;99.90;;;;;;7372774;19;20340;-80
2022/11/04 09:47:25;;;;;;;7.95;6.55;;;12.30;99.90;;;;;;7270799;19;2004349;-80
2022/11/04 09:49:53;;;;;;;7.50;6.40;;;12.30;99.90;;;;;;7372394;19;21002;-80
2022/11/04 09:52:27;;;;;;;8.43;7.00;;;12.40;99.90;;;;;;7373315;19;20328;-81
2022/11/04 09:55:11;;;;;;;7.97;6.70;;;12.40;99.90;;;;;;7370785;19;20316;-80
2022/11/04 09:57:36;;;;;;;8.85;6.45;;;12.40;99.90;;;;;;7374232;19;20305;-81
2022/11/04 10:00:03;;;;;;;8.17;6.30;;;12.30;99.90;;;;;;7377496;19;20320;-81
2022/11/04 10:03:13;;;;;;;9.77;7.07;;;12.20;99.90;;;;;;7385273;19;20336;-81
2022/11/04 10:05:55;;;;;;;8.07;6.15;;;12.20;99.90;;;;;;7280972;19;2004160;-81
2022/11/04 10:08:55;;;;;;;7.17;6.47;;;12.20;99.90;;;;;;7278236;19;2004409;-81
2022/11/04 10:11:52;;;;;;;6.78;5.70;;;12.30;99.90;;;;;;7229878;19;2004282;-81
2022/11/04 10:15:00;;;;;;;8.18;6.28;;;12.30;99.90;;;;;;7245381;19;2004451;-81
2022/11/04 10:18:09;;;;;;;7.85;6.22;;;12.30;99.90;;;;;;7392114;19;20320;-81
2022/11/04 10:21:28;;;;;;;9.02;7.13;;;12.40;99.90;;;;;;7376027;19;20375;-80
2022/11/04 10:23:59;;;;;;;8.77;6.70;;;12.40;99.90;;;;;;7161892;19;2004359;-80
2022/11/04 10:27:12;;;;;;;8.05;6.30;;;12.30;99.90;;;;;;7359022;19;20333;-81
2022/11/04 10:29:49;;;;;;;6.82;6.00;;;12.30;99.90;;;;;;7386485;19;20349;-80
2022/11/04 10:32:39;;;;;;;6.33;5.47;;;12.30;99.90;;;;;;7378734;19;20345;-81
2022/11/04 10:35:14;;;;;;;7.65;5.93;;;12.40;99.90;;;;;;7363390;19;20324;-81
2022/11/04 10:37:40;;;;;;;7.97;6.63;;;12.30;99.90;;;;;;7337274;19;20312;-80
2022/11/04 10:40:20;;;;;;;6.37;5.57;;;12.30;99.90;;;;;;7375862;19;20328;-80
2022/11/04 10:42:50;;;;;;;7.50;6.15;;;12.30;99.90;;;;;;7247406;19;2004258;-80
2022/11/04 10:45:20;;;;;;;6.13;5.30;;;12.30;99.90;;;;;;7327915;19;20335;-81
2022/11/04 10:47:57;;;;;;;5.97;5.32;;;12.30;99.90;;;;;;7383636;19;20328;-80
2022/11/04 10:50:36;;;;;;;7.53;5.70;;;12.40;99.90;;;;;;7313186;19;20356;-81
2022/11/04 10:53:29;;;;;;;6.22;5.03;;;12.40;99.90;;;;;;7306171;19;20333;-80
2022/11/04 10:56:15;;;;;;;5.75;5.15;;;12.40;99.90;;;;;;7223736;19;2004154;-80
2022/11/04 10:58:50;;;;;;;7.03;5.72;;;12.50;99.90;;;;;;7361273;19;20324;-81
2022/11/04 11:01:30;;;;;;;7.68;6.32;;;12.50;99.90;;;;;;7375491;19;20316;-80
2022/11/04 11:04:39;;;;;;;7.13;5.60;;;12.40;99.90;;;;;;7389557;19;20373;-80
2022/11/04 11:07:55;;;;;;;7.25;5.97;;;12.30;99.90;;;;;;7382619;19;20343;-81
2022/11/04 11:10:24;;;;;;;5.93;5.13;;;12.30;99.90;;;;;;7254044;19;2004411;-80
2022/11/04 11:12:57;;;;;;;6.45;5.57;;;12.40;99.90;;;;;;7374604;19;21023;-80
2022/11/04 11:15:23;;;;;;;7.50;6.10;;;12.40;99.90;;;;;;7375888;19;20323;-80
2022/11/04 11:17:51;;;;;;;8.35;5.10;;;12.40;99.90;;;;;;7376646;19;20324;-80
2022/11/04 11:20:20;;;;;;;5.18;4.18;;;12.40;99.90;;;;;;7372388;19;21258;-80
2022/11/04 11:22:47;;;;;;;4.45;4.05;;;12.40;99.90;;;;;;7374569;19;20333;-80
2022/11/04 11:25:32;;;;;;;4.35;3.95;;;12.30;99.90;;;;;;7380595;19;20340;-80
2022/11/04 11:28:02;;;;;;;4.70;3.90;;;12.30;99.90;;;;;;7277648;19;2004277;-79
2022/11/04 11:30:45;;;;;;;3.97;3.60;;;12.30;99.90;;;;;;7377968;19;20305;-81
2022/11/04 11:36:40;;;;;;;4.03;3.40;;;12.30;99.90;;;;;;7053680;19;2004632;-80
2022/11/04 11:39:12;;;;;;;4.03;3.23;;;12.30;99.90;;;;;;7371988;19;20305;-80
2022/11/04 11:42:01;;;;;;;3.47;3.17;;;12.30;99.90;;;;;;7374782;19;20309;-80
2022/11/04 11:44:43;;;;;;;3.60;3.30;;;12.40;99.90;;;;;;7274275;19;2004621;-79
2022/11/04 11:47:35;;;;;;;4.13;3.72;;;12.40;99.90;;;;;;7376779;19;20312;-79
2022/11/04 11:50:19;;;;;;;4.53;3.53;;;12.40;99.90;;;;;;7277450;19;2005926;-81
2022/11/04 11:52:46;;;;;;;6.22;3.78;;;12.30;99.90;;;;;;7263387;19;2004550;-80
2022/11/04 11:55:29;;;;;;;4.73;3.50;;;12.20;99.90;;;;;;7370718;19;20902;-79
2022/11/04 11:58:33;;;;;;;5.20;3.55;;;12.20;99.90;;;;;;7270892;19;2012174;-80
2022/11/04 12:01:31;;;;;;;4.05;3.45;;;12.10;99.90;;;;;;7274589;19;2004219;-80
2022/11/04 12:03:57;;;;;;;4.50;3.38;;;12.00;99.90;;;;;;7278015;19;2019754;-80
2022/11/04 12:06:47;;;;;;;5.93;3.75;;;11.90;99.90;;;;;;7380422;19;20356;-80
2022/11/04 12:09:35;;;;;;;5.33;2.60;;;11.80;99.90;;;;;;7374338;19;20337;-80
2022/11/04 12:12:27;;;;;;;3.40;2.53;;;11.70;99.90;;;;;;7265414;19;2004598;-80
2022/11/04 12:15:02;;;;;;;2.58;2.38;;;11.70;99.90;;;;;;7264101;19;2004506;-80
2022/11/04 12:17:37;;;;;;;2.53;2.30;;;11.70;99.90;;;;;;7364214;19;20661;-80
2022/11/04 12:20:33;;;;;;;2.50;2.30;;;11.80;99.90;;;;;;7371841;19;21240;-79
2022/11/04 12:23:23;;;;;;;2.35;2.15;;;11.90;99.90;;;;;;7271823;19;2004368;-79
2022/11/04 12:26:11;;;;;;;2.27;2.00;;;12.00;99.90;;;;;;7271703;19;2004308;-79
2022/11/04 12:28:58;;;;;;;3.20;2.38;;;12.00;99.90;;;;;;7373175;19;20891;-79
2022/11/04 12:31:48;;;;;;;2.35;2.15;;;12.00;99.90;;;;;;7271054;19;2004314;-79
2022/11/04 12:34:29;;;;;;;2.72;2.40;;;12.10;99.90;;;;;;7268883;19;2004362;-79
2022/11/04 12:36:54;;;;;;;4.40;2.20;;;12.10;99.90;;;;;;7369493;19;20324;-79
2022/11/04 12:39:43;;;;;;;2.00;1.90;;;12.10;99.90;;;;;;7370516;19;20345;-80
2022/11/04 12:42:31;;;;;;;2.25;2.00;;;12.10;99.90;;;;;;7370887;19;20333;-79
2022/11/04 12:45:05;;;;;;;2.33;2.13;;;12.20;99.90;;;;;;7270124;19;2013235;-79
2022/11/04 12:47:35;;;;;;;2.50;2.30;;;12.10;99.90;;;;;;7370582;19;20673;-80
2022/11/04 12:50:08;;;;;;;2.65;2.30;;;12.00;99.90;;;;;;7380289;19;20349;-81
2022/11/04 12:53:01;;;;;;;2.90;2.45;;;11.90;99.90;;;;;;7386739;19;20340;-79
2022/11/04 12:55:45;;;;;;;2.80;2.58;;;11.80;99.90;;;;;;7276622;19;2004320;-79
2022/11/04 12:58:16;;;;;;;3.00;2.50;;;11.60;99.90;;;;;;7372291;19;20321;-79
2022/11/04 13:00:42;;;;;;;2.97;2.60;;;11.60;99.90;;;;;;7377302;19;20408;-79
2022/11/04 13:03:30;;;;;;;2.65;2.10;;;11.60;99.90;;;;;;7376020;19;20416;-80
2022/11/04 13:06:17;;;;;;;2.70;2.43;;;11.60;99.90;;;;;;7273983;19;2004336;-80
2022/11/04 13:08:49;;;;;;;2.67;2.30;;;11.60;99.90;;;;;;7374143;19;20328;-80
2022/11/04 13:11:24;;;;;;;2.60;2.40;;;11.60;99.90;;;;;;7277513;19;2004442;-80
2022/11/04 13:14:06;;;;;;;3.83;2.20;;;11.70;99.90;;;;;;7383602;19;20316;-81
2022/11/04 13:16:34;;;;;;;2.92;2.65;;;11.70;99.90;;;;;;7384665;19;20340;-80
2022/11/04 13:19:00;;;;;;;2.47;2.10;;;11.70;99.90;;;;;;7386780;19;20351;-80
2022/11/04 13:21:27;;;;;;;3.07;2.50;;;11.70;99.90;;;;;;7377104;19;20312;-80
2022/11/04 13:23:57;;;;;;;3.87;2.50;;;11.60;99.90;;;;;;7380622;19;20344;-80
2022/11/04 13:26:22;;;;;;;2.78;2.58;;;11.60;99.90;;;;;;7373538;19;21087;-79
2022/11/04 13:29:20;;;;;;;3.50;2.80;;;11.60;99.90;;;;;;7372899;19;20352;-80
2022/11/04 13:32:08;;;;;;;3.50;2.77;;;11.60;99.90;;;;;;7271081;19;2005847;-79
2022/11/04 13:34:47;;;;;;;3.10;2.80;;;11.50;99.90;;;;;;7379212;19;20364;-81
2022/11/04 13:37:26;;;;;;;3.20;2.90;;;11.40;99.90;;;;;;7374477;19;20328;-79
2022/11/04 13:39:57;;;;;;;3.95;2.95;;;11.40;99.90;;;;;;7278529;19;2019942;-79
2022/11/04 13:42:29;;;;;;;3.50;3.20;;;11.20;99.90;;;;;;7378650;19;20815;-80
2022/11/04 13:44:56;;;;;;;5.10;2.88;;;11.20;99.90;;;;;;7380953;19;20377;-80